sensor_id;sensor_type;location;lat;lon;timestamp;P1;durP1;ratioP1;P2;durP2;ratioP2
50064;SDS011;35951;47.848;-122.338;2022-10-16T00:01:41;45.73;;;31.17;;
50064;SDS011;35951;47.848;-122.338;2022-10-16T00:04:14;56.28;;;34.10;;
50064;SDS011;35951;47.848;-122.338;2022-10-16T00:06:43;49.58;;;31.82;;
50064;SDS011;35951;47.848;-122.338;2022-10-16T00:09:11;42.55;;;25.65;;
50064;SDS011;35951;47.848;-122.338;2022-10-16T00:11:39;44.13;;;28.10;;
50064;SDS011;35951;47.848;-122.338;2022-10-16T00:14:09;48.38;;;32.20;;
50064;SDS011;35951;47.848;-122.338;2022-10-16T00:16:40;46.63;;;30.77;;
50064;SDS011;35951;47.848;-122.338;2022-10-16T00:19:09;45.88;;;28.52;;
50064;SDS011;35951;47.848;-122.338;2022-10-16T00:21:39;48.05;;;31.75;;
50064;SDS011;35951;47.848;-122.338;2022-10-16T00:24:08;48.00;;;31.42;;
50064;SDS011;35951;47.848;-122.338;2022-10-16T00:26:37;47.40;;;31.65;;
50064;SDS011;35951;47.848;-122.338;2022-10-16T00:29:05;52.25;;;29.98;;
50064;SDS011;35951;47.848;-122.338;2022-10-16T00:31:33;44.38;;;28.77;;
50064;SDS011;35951;47.848;-122.338;2022-10-16T00:34:02;49.83;;;28.60;;
50064;SDS011;35951;47.848;-122.338;2022-10-16T00:36:30;47.13;;;29.37;;
50064;SDS011;35951;47.848;-122.338;2022-10-16T00:38:58;46.13;;;28.12;;
50064;SDS011;35951;47.848;-122.338;2022-10-16T00:41:26;42.85;;;28.55;;
50064;SDS011;35951;47.848;-122.338;2022-10-16T00:43:55;45.40;;;29.85;;
50064;SDS011;35951;47.848;-122.338;2022-10-16T00:49:18;42.48;;;27.20;;
50064;SDS011;35951;47.848;-122.338;2022-10-16T00:56:57;53.20;;;30.12;;
50064;SDS011;35951;47.848;-122.338;2022-10-16T00:59:30;43.92;;;30.30;;
50064;SDS011;35951;47.848;-122.338;2022-10-16T01:02:01;53.68;;;29.98;;
50064;SDS011;35951;47.848;-122.338;2022-10-16T01:04:32;44.53;;;28.90;;
50064;SDS011;35951;47.848;-122.338;2022-10-16T01:07:12;47.40;;;29.12;;
50064;SDS011;35951;47.848;-122.338;2022-10-16T01:10:12;51.42;;;29.82;;
50064;SDS011;35951;47.848;-122.338;2022-10-16T01:13:06;48.55;;;30.65;;
50064;SDS011;35951;47.848;-122.338;2022-10-16T01:18:34;43.23;;;28.65;;
50064;SDS011;35951;47.848;-122.338;2022-10-16T01:21:04;46.58;;;27.40;;
50064;SDS011;35951;47.848;-122.338;2022-10-16T01:23:45;50.45;;;28.80;;
50064;SDS011;35951;47.848;-122.338;2022-10-16T01:32:33;44.00;;;29.35;;
50064;SDS011;35951;47.848;-122.338;2022-10-16T01:38:06;48.23;;;31.12;;
50064;SDS011;35951;47.848;-122.338;2022-10-16T01:40:58;56.15;;;32.60;;
50064;SDS011;35951;47.848;-122.338;2022-10-16T01:43:37;48.70;;;31.05;;
50064;SDS011;35951;47.848;-122.338;2022-10-16T01:46:08;51.33;;;31.75;;
50064;SDS011;35951;47.848;-122.338;2022-10-16T01:48:37;49.27;;;30.52;;
50064;SDS011;35951;47.848;-122.338;2022-10-16T01:51:07;48.10;;;31.55;;
50064;SDS011;35951;47.848;-122.338;2022-10-16T01:53:44;51.05;;;33.85;;
50064;SDS011;35951;47.848;-122.338;2022-10-16T01:56:15;54.20;;;33.63;;
50064;SDS011;35951;47.848;-122.338;2022-10-16T01:58:55;58.15;;;35.98;;
50064;SDS011;35951;47.848;-122.338;2022-10-16T02:01:34;61.30;;;32.67;;
50064;SDS011;35951;47.848;-122.338;2022-10-16T02:04:11;53.63;;;32.33;;
50064;SDS011;35951;47.848;-122.338;2022-10-16T02:06:41;53.38;;;32.73;;
50064;SDS011;35951;47.848;-122.338;2022-10-16T02:09:09;57.53;;;31.90;;
50064;SDS011;35951;47.848;-122.338;2022-10-16T02:11:38;55.95;;;34.18;;
50064;SDS011;35951;47.848;-122.338;2022-10-16T02:14:06;59.40;;;33.90;;
50064;SDS011;35951;47.848;-122.338;2022-10-16T02:16:36;51.80;;;33.38;;
50064;SDS011;35951;47.848;-122.338;2022-10-16T02:19:14;55.03;;;32.20;;
50064;SDS011;35951;47.848;-122.338;2022-10-16T02:30:25;55.12;;;29.48;;
50064;SDS011;35951;47.848;-122.338;2022-10-16T02:33:05;41.92;;;27.20;;
50064;SDS011;35951;47.848;-122.338;2022-10-16T02:35:36;40.70;;;25.23;;
50064;SDS011;35951;47.848;-122.338;2022-10-16T02:38:05;51.58;;;28.30;;
50064;SDS011;35951;47.848;-122.338;2022-10-16T02:40:34;47.80;;;27.17;;
50064;SDS011;35951;47.848;-122.338;2022-10-16T02:43:03;43.87;;;27.22;;
50064;SDS011;35951;47.848;-122.338;2022-10-16T02:45:31;41.98;;;26.55;;
50064;SDS011;35951;47.848;-122.338;2022-10-16T02:47:59;39.08;;;23.65;;
50064;SDS011;35951;47.848;-122.338;2022-10-16T02:50:26;45.67;;;24.27;;
50064;SDS011;35951;47.848;-122.338;2022-10-16T02:52:54;40.48;;;23.20;;
50064;SDS011;35951;47.848;-122.338;2022-10-16T02:55:21;42.00;;;24.12;;
50064;SDS011;35951;47.848;-122.338;2022-10-16T02:57:49;39.23;;;23.47;;
50064;SDS011;35951;47.848;-122.338;2022-10-16T03:00:17;34.63;;;22.77;;
50064;SDS011;35951;47.848;-122.338;2022-10-16T03:02:45;34.03;;;22.02;;
50064;SDS011;35951;47.848;-122.338;2022-10-16T03:05:12;36.30;;;20.48;;
50064;SDS011;35951;47.848;-122.338;2022-10-16T03:07:41;35.58;;;22.67;;
50064;SDS011;35951;47.848;-122.338;2022-10-16T03:10:09;38.30;;;22.52;;
50064;SDS011;35951;47.848;-122.338;2022-10-16T03:12:37;37.65;;;22.30;;
50064;SDS011;35951;47.848;-122.338;2022-10-16T03:15:05;36.88;;;21.82;;
50064;SDS011;35951;47.848;-122.338;2022-10-16T03:17:34;33.13;;;20.17;;
50064;SDS011;35951;47.848;-122.338;2022-10-16T03:20:02;34.83;;;20.15;;
50064;SDS011;35951;47.848;-122.338;2022-10-16T03:22:31;38.08;;;21.75;;
50064;SDS011;35951;47.848;-122.338;2022-10-16T03:24:59;33.15;;;21.48;;
50064;SDS011;35951;47.848;-122.338;2022-10-16T03:27:27;30.02;;;20.52;;
50064;SDS011;35951;47.848;-122.338;2022-10-16T03:29:55;34.05;;;19.92;;
50064;SDS011;35951;47.848;-122.338;2022-10-16T03:32:23;28.52;;;18.55;;
50064;SDS011;35951;47.848;-122.338;2022-10-16T03:34:51;32.50;;;19.52;;
50064;SDS011;35951;47.848;-122.338;2022-10-16T03:37:21;33.25;;;20.55;;
50064;SDS011;35951;47.848;-122.338;2022-10-16T03:39:50;30.02;;;20.32;;
50064;SDS011;35951;47.848;-122.338;2022-10-16T03:42:18;39.92;;;20.43;;
50064;SDS011;35951;47.848;-122.338;2022-10-16T03:44:46;31.57;;;19.10;;
50064;SDS011;35951;47.848;-122.338;2022-10-16T03:47:14;34.27;;;17.70;;
50064;SDS011;35951;47.848;-122.338;2022-10-16T03:49:44;37.48;;;19.05;;
50064;SDS011;35951;47.848;-122.338;2022-10-16T03:52:12;30.97;;;18.73;;
50064;SDS011;35951;47.848;-122.338;2022-10-16T03:54:41;29.95;;;17.70;;
50064;SDS011;35951;47.848;-122.338;2022-10-16T03:57:09;35.13;;;18.82;;
50064;SDS011;35951;47.848;-122.338;2022-10-16T03:59:37;29.92;;;19.92;;
50064;SDS011;35951;47.848;-122.338;2022-10-16T04:02:05;34.67;;;18.42;;
50064;SDS011;35951;47.848;-122.338;2022-10-16T04:04:33;30.77;;;18.13;;
50064;SDS011;35951;47.848;-122.338;2022-10-16T04:07:01;31.17;;;19.50;;
50064;SDS011;35951;47.848;-122.338;2022-10-16T04:09:29;33.08;;;18.98;;
50064;SDS011;35951;47.848;-122.338;2022-10-16T04:11:57;33.55;;;20.62;;
50064;SDS011;35951;47.848;-122.338;2022-10-16T04:14:25;34.85;;;20.25;;
50064;SDS011;35951;47.848;-122.338;2022-10-16T04:16:52;34.48;;;19.00;;
50064;SDS011;35951;47.848;-122.338;2022-10-16T04:19:20;34.23;;;18.65;;
50064;SDS011;35951;47.848;-122.338;2022-10-16T04:21:48;32.90;;;20.35;;
50064;SDS011;35951;47.848;-122.338;2022-10-16T04:24:15;34.55;;;19.48;;
50064;SDS011;35951;47.848;-122.338;2022-10-16T04:26:43;35.68;;;19.40;;
50064;SDS011;35951;47.848;-122.338;2022-10-16T04:29:11;30.00;;;18.67;;
50064;SDS011;35951;47.848;-122.338;2022-10-16T04:31:39;33.00;;;19.23;;
50064;SDS011;35951;47.848;-122.338;2022-10-16T04:34:07;31.05;;;18.30;;
50064;SDS011;35951;47.848;-122.338;2022-10-16T04:36:35;34.83;;;19.00;;
50064;SDS011;35951;47.848;-122.338;2022-10-16T04:39:03;33.18;;;19.25;;
50064;SDS011;35951;47.848;-122.338;2022-10-16T04:41:31;34.63;;;19.48;;
50064;SDS011;35951;47.848;-122.338;2022-10-16T04:43:59;26.15;;;17.12;;
50064;SDS011;35951;47.848;-122.338;2022-10-16T04:46:28;31.95;;;18.60;;
50064;SDS011;35951;47.848;-122.338;2022-10-16T04:48:56;30.00;;;17.07;;
50064;SDS011;35951;47.848;-122.338;2022-10-16T04:51:24;27.40;;;17.45;;
50064;SDS011;35951;47.848;-122.338;2022-10-16T04:53:53;29.63;;;17.42;;
50064;SDS011;35951;47.848;-122.338;2022-10-16T04:56:21;24.72;;;16.27;;
50064;SDS011;35951;47.848;-122.338;2022-10-16T04:58:50;23.83;;;14.83;;
50064;SDS011;35951;47.848;-122.338;2022-10-16T05:01:18;28.32;;;17.02;;
50064;SDS011;35951;47.848;-122.338;2022-10-16T05:03:46;33.08;;;15.98;;
50064;SDS011;35951;47.848;-122.338;2022-10-16T05:06:15;28.52;;;17.45;;
50064;SDS011;35951;47.848;-122.338;2022-10-16T05:08:43;29.10;;;17.42;;
50064;SDS011;35951;47.848;-122.338;2022-10-16T05:11:11;31.37;;;18.52;;
50064;SDS011;35951;47.848;-122.338;2022-10-16T05:13:39;27.00;;;17.73;;
50064;SDS011;35951;47.848;-122.338;2022-10-16T05:16:07;26.62;;;17.92;;
50064;SDS011;35951;47.848;-122.338;2022-10-16T05:18:35;31.23;;;18.80;;
50064;SDS011;35951;47.848;-122.338;2022-10-16T05:21:04;25.00;;;16.23;;
50064;SDS011;35951;47.848;-122.338;2022-10-16T05:23:32;29.92;;;19.05;;
50064;SDS011;35951;47.848;-122.338;2022-10-16T05:26:01;34.85;;;19.75;;
50064;SDS011;35951;47.848;-122.338;2022-10-16T05:28:29;32.40;;;19.37;;
50064;SDS011;35951;47.848;-122.338;2022-10-16T05:33:25;31.93;;;18.02;;
50064;SDS011;35951;47.848;-122.338;2022-10-16T05:35:53;34.75;;;20.80;;
50064;SDS011;35951;47.848;-122.338;2022-10-16T05:38:21;34.43;;;20.25;;
50064;SDS011;35951;47.848;-122.338;2022-10-16T05:40:52;38.33;;;18.98;;
50064;SDS011;35951;47.848;-122.338;2022-10-16T05:43:19;33.60;;;18.65;;
50064;SDS011;35951;47.848;-122.338;2022-10-16T05:45:54;34.23;;;18.77;;
50064;SDS011;35951;47.848;-122.338;2022-10-16T05:48:26;46.75;;;20.30;;
50064;SDS011;35951;47.848;-122.338;2022-10-16T05:51:03;29.52;;;19.65;;
50064;SDS011;35951;47.848;-122.338;2022-10-16T05:53:29;31.62;;;19.10;;
50064;SDS011;35951;47.848;-122.338;2022-10-16T05:55:58;32.53;;;20.20;;
50064;SDS011;35951;47.848;-122.338;2022-10-16T05:58:28;39.35;;;20.77;;
50064;SDS011;35951;47.848;-122.338;2022-10-16T06:00:58;33.58;;;20.70;;
50064;SDS011;35951;47.848;-122.338;2022-10-16T06:03:32;30.52;;;19.92;;
50064;SDS011;35951;47.848;-122.338;2022-10-16T06:06:10;39.15;;;21.48;;
50064;SDS011;35951;47.848;-122.338;2022-10-16T06:08:42;44.65;;;23.77;;
50064;SDS011;35951;47.848;-122.338;2022-10-16T06:11:17;40.25;;;20.92;;
50064;SDS011;35951;47.848;-122.338;2022-10-16T06:13:51;38.95;;;22.77;;
50064;SDS011;35951;47.848;-122.338;2022-10-16T06:16:22;39.03;;;22.37;;
50064;SDS011;35951;47.848;-122.338;2022-10-16T06:18:51;41.92;;;22.93;;
50064;SDS011;35951;47.848;-122.338;2022-10-16T06:21:22;37.95;;;22.48;;
50064;SDS011;35951;47.848;-122.338;2022-10-16T06:23:52;35.90;;;21.07;;
50064;SDS011;35951;47.848;-122.338;2022-10-16T06:26:22;38.13;;;21.55;;
50064;SDS011;35951;47.848;-122.338;2022-10-16T06:28:53;38.10;;;20.70;;
50064;SDS011;35951;47.848;-122.338;2022-10-16T06:31:22;32.60;;;20.77;;
50064;SDS011;35951;47.848;-122.338;2022-10-16T06:33:52;46.77;;;22.87;;
50064;SDS011;35951;47.848;-122.338;2022-10-16T06:36:22;36.80;;;21.82;;
50064;SDS011;35951;47.848;-122.338;2022-10-16T06:38:50;38.95;;;21.73;;
50064;SDS011;35951;47.848;-122.338;2022-10-16T06:41:19;40.88;;;22.77;;
50064;SDS011;35951;47.848;-122.338;2022-10-16T06:43:48;37.58;;;22.95;;
50064;SDS011;35951;47.848;-122.338;2022-10-16T06:46:17;35.52;;;21.05;;
50064;SDS011;35951;47.848;-122.338;2022-10-16T06:48:48;28.90;;;19.67;;
50064;SDS011;35951;47.848;-122.338;2022-10-16T06:51:17;39.08;;;20.68;;
50064;SDS011;35951;47.848;-122.338;2022-10-16T06:53:48;40.63;;;22.42;;
50064;SDS011;35951;47.848;-122.338;2022-10-16T06:56:20;37.95;;;22.40;;
50064;SDS011;35951;47.848;-122.338;2022-10-16T06:58:50;42.93;;;22.73;;
50064;SDS011;35951;47.848;-122.338;2022-10-16T07:01:21;43.20;;;24.23;;
50064;SDS011;35951;47.848;-122.338;2022-10-16T07:03:51;43.15;;;24.52;;
50064;SDS011;35951;47.848;-122.338;2022-10-16T07:06:21;39.00;;;23.25;;
50064;SDS011;35951;47.848;-122.338;2022-10-16T07:08:50;42.62;;;24.37;;
50064;SDS011;35951;47.848;-122.338;2022-10-16T07:11:19;47.53;;;23.27;;
50064;SDS011;35951;47.848;-122.338;2022-10-16T07:13:49;36.03;;;22.40;;
50064;SDS011;35951;47.848;-122.338;2022-10-16T07:16:18;34.58;;;20.68;;
50064;SDS011;35951;47.848;-122.338;2022-10-16T07:18:48;37.45;;;21.75;;
50064;SDS011;35951;47.848;-122.338;2022-10-16T07:21:17;34.30;;;19.20;;
50064;SDS011;35951;47.848;-122.338;2022-10-16T07:23:55;39.20;;;21.80;;
50064;SDS011;35951;47.848;-122.338;2022-10-16T07:26:25;39.70;;;21.05;;
50064;SDS011;35951;47.848;-122.338;2022-10-16T07:28:54;35.68;;;19.70;;
50064;SDS011;35951;47.848;-122.338;2022-10-16T07:31:23;38.23;;;20.43;;
50064;SDS011;35951;47.848;-122.338;2022-10-16T07:33:51;42.85;;;19.98;;
50064;SDS011;35951;47.848;-122.338;2022-10-16T07:36:19;37.73;;;21.48;;
50064;SDS011;35951;47.848;-122.338;2022-10-16T07:38:47;39.33;;;22.07;;
50064;SDS011;35951;47.848;-122.338;2022-10-16T07:41:16;42.60;;;24.45;;
50064;SDS011;35951;47.848;-122.338;2022-10-16T07:43:45;37.35;;;22.20;;
50064;SDS011;35951;47.848;-122.338;2022-10-16T07:46:15;41.92;;;22.20;;
50064;SDS011;35951;47.848;-122.338;2022-10-16T07:48:44;41.25;;;19.65;;
50064;SDS011;35951;47.848;-122.338;2022-10-16T07:53:41;37.80;;;19.73;;
50064;SDS011;35951;47.848;-122.338;2022-10-16T07:56:09;32.67;;;20.85;;
50064;SDS011;35951;47.848;-122.338;2022-10-16T07:58:38;43.13;;;21.05;;
50064;SDS011;35951;47.848;-122.338;2022-10-16T08:01:07;40.03;;;18.98;;
50064;SDS011;35951;47.848;-122.338;2022-10-16T08:03:44;36.70;;;18.52;;
50064;SDS011;35951;47.848;-122.338;2022-10-16T08:06:13;42.58;;;21.73;;
50064;SDS011;35951;47.848;-122.338;2022-10-16T08:08:42;35.08;;;20.02;;
50064;SDS011;35951;47.848;-122.338;2022-10-16T08:11:10;34.27;;;19.20;;
50064;SDS011;35951;47.848;-122.338;2022-10-16T08:13:38;37.17;;;19.07;;
50064;SDS011;35951;47.848;-122.338;2022-10-16T08:16:06;38.30;;;20.20;;
50064;SDS011;35951;47.848;-122.338;2022-10-16T08:21:07;36.10;;;18.17;;
50064;SDS011;35951;47.848;-122.338;2022-10-16T08:23:38;35.38;;;20.10;;
50064;SDS011;35951;47.848;-122.338;2022-10-16T08:26:06;38.78;;;18.75;;
50064;SDS011;35951;47.848;-122.338;2022-10-16T08:28:34;30.32;;;18.10;;
50064;SDS011;35951;47.848;-122.338;2022-10-16T08:31:06;31.70;;;17.73;;
50064;SDS011;35951;47.848;-122.338;2022-10-16T08:33:39;29.77;;;15.38;;
50064;SDS011;35951;47.848;-122.338;2022-10-16T08:36:09;37.10;;;18.25;;
50064;SDS011;35951;47.848;-122.338;2022-10-16T08:38:38;34.50;;;17.52;;
50064;SDS011;35951;47.848;-122.338;2022-10-16T08:41:22;34.92;;;18.85;;
50064;SDS011;35951;47.848;-122.338;2022-10-16T08:44:01;37.83;;;17.92;;
50064;SDS011;35951;47.848;-122.338;2022-10-16T08:46:34;36.88;;;18.07;;
50064;SDS011;35951;47.848;-122.338;2022-10-16T08:49:10;32.98;;;16.32;;
50064;SDS011;35951;47.848;-122.338;2022-10-16T08:51:39;30.92;;;16.77;;
50064;SDS011;35951;47.848;-122.338;2022-10-16T08:57:07;31.02;;;15.85;;
50064;SDS011;35951;47.848;-122.338;2022-10-16T08:59:40;28.73;;;15.80;;
50064;SDS011;35951;47.848;-122.338;2022-10-16T09:02:45;37.90;;;16.45;;
50064;SDS011;35951;47.848;-122.338;2022-10-16T09:08:03;33.83;;;16.02;;
50064;SDS011;35951;47.848;-122.338;2022-10-16T09:11:03;33.90;;;17.52;;
50064;SDS011;35951;47.848;-122.338;2022-10-16T09:16:42;29.15;;;13.93;;
50064;SDS011;35951;47.848;-122.338;2022-10-16T09:22:15;34.63;;;16.12;;
50064;SDS011;35951;47.848;-122.338;2022-10-16T09:24:45;28.98;;;15.32;;
50064;SDS011;35951;47.848;-122.338;2022-10-16T09:27:13;28.73;;;14.65;;
50064;SDS011;35951;47.848;-122.338;2022-10-16T09:29:42;35.68;;;16.02;;
50064;SDS011;35951;47.848;-122.338;2022-10-16T09:32:14;38.98;;;16.80;;
50064;SDS011;35951;47.848;-122.338;2022-10-16T09:34:54;29.55;;;15.78;;
50064;SDS011;35951;47.848;-122.338;2022-10-16T09:37:22;33.23;;;16.45;;
50064;SDS011;35951;47.848;-122.338;2022-10-16T09:39:52;31.42;;;15.43;;
50064;SDS011;35951;47.848;-122.338;2022-10-16T09:42:26;34.90;;;17.90;;
50064;SDS011;35951;47.848;-122.338;2022-10-16T09:45:01;29.92;;;15.65;;
50064;SDS011;35951;47.848;-122.338;2022-10-16T09:47:30;36.20;;;14.45;;
50064;SDS011;35951;47.848;-122.338;2022-10-16T09:50:19;25.00;;;14.05;;
50064;SDS011;35951;47.848;-122.338;2022-10-16T09:52:34;33.33;;;16.42;;
50064;SDS011;35951;47.848;-122.338;2022-10-16T09:55:03;33.67;;;15.48;;
50064;SDS011;35951;47.848;-122.338;2022-10-16T09:57:50;26.77;;;15.98;;
50064;SDS011;35951;47.848;-122.338;2022-10-16T10:00:21;32.83;;;14.90;;
50064;SDS011;35951;47.848;-122.338;2022-10-16T10:02:51;31.75;;;15.15;;
50064;SDS011;35951;47.848;-122.338;2022-10-16T10:05:24;27.77;;;14.13;;
50064;SDS011;35951;47.848;-122.338;2022-10-16T10:07:54;26.97;;;13.98;;
50064;SDS011;35951;47.848;-122.338;2022-10-16T10:10:29;29.65;;;15.80;;
50064;SDS011;35951;47.848;-122.338;2022-10-16T10:12:59;34.83;;;15.28;;
50064;SDS011;35951;47.848;-122.338;2022-10-16T10:15:28;28.80;;;15.88;;
50064;SDS011;35951;47.848;-122.338;2022-10-16T10:17:59;30.52;;;13.55;;
50064;SDS011;35951;47.848;-122.338;2022-10-16T10:23:01;34.48;;;14.00;;
50064;SDS011;35951;47.848;-122.338;2022-10-16T10:25:52;30.92;;;14.60;;
50064;SDS011;35951;47.848;-122.338;2022-10-16T10:28:46;31.42;;;15.13;;
50064;SDS011;35951;47.848;-122.338;2022-10-16T10:31:45;41.53;;;15.78;;
50064;SDS011;35951;47.848;-122.338;2022-10-16T10:34:26;29.52;;;14.68;;
50064;SDS011;35951;47.848;-122.338;2022-10-16T10:37:08;26.12;;;14.58;;
50064;SDS011;35951;47.848;-122.338;2022-10-16T10:39:41;28.73;;;14.58;;
50064;SDS011;35951;47.848;-122.338;2022-10-16T10:42:14;31.05;;;14.13;;
50064;SDS011;35951;47.848;-122.338;2022-10-16T10:45:15;32.80;;;15.25;;
50064;SDS011;35951;47.848;-122.338;2022-10-16T10:48:10;29.23;;;13.78;;
50064;SDS011;35951;47.848;-122.338;2022-10-16T10:56:51;25.80;;;13.32;;
50064;SDS011;35951;47.848;-122.338;2022-10-16T10:59:57;30.35;;;13.58;;
50064;SDS011;35951;47.848;-122.338;2022-10-16T11:02:40;19.77;;;12.35;;
50064;SDS011;35951;47.848;-122.338;2022-10-16T11:05:23;26.95;;;13.08;;
50064;SDS011;35951;47.848;-122.338;2022-10-16T11:08:06;27.42;;;12.82;;
50064;SDS011;35951;47.848;-122.338;2022-10-16T11:11:00;26.93;;;13.78;;
50064;SDS011;35951;47.848;-122.338;2022-10-16T11:13:42;27.42;;;14.00;;
50064;SDS011;35951;47.848;-122.338;2022-10-16T11:16:23;32.67;;;14.15;;
50064;SDS011;35951;47.848;-122.338;2022-10-16T11:18:57;30.35;;;12.15;;
50064;SDS011;35951;47.848;-122.338;2022-10-16T11:21:30;30.77;;;13.62;;
50064;SDS011;35951;47.848;-122.338;2022-10-16T11:24:12;25.32;;;14.20;;
50064;SDS011;35951;47.848;-122.338;2022-10-16T11:26:34;34.25;;;14.07;;
50064;SDS011;35951;47.848;-122.338;2022-10-16T11:29:07;21.85;;;12.68;;
50064;SDS011;35951;47.848;-122.338;2022-10-16T11:31:47;24.45;;;12.55;;
50064;SDS011;35951;47.848;-122.338;2022-10-16T11:37:14;28.17;;;13.30;;
50064;SDS011;35951;47.848;-122.338;2022-10-16T11:39:43;25.92;;;12.63;;
50064;SDS011;35951;47.848;-122.338;2022-10-16T11:45:07;21.75;;;11.35;;
50064;SDS011;35951;47.848;-122.338;2022-10-16T11:47:54;23.52;;;12.25;;
50064;SDS011;35951;47.848;-122.338;2022-10-16T11:53:13;25.82;;;13.25;;
50064;SDS011;35951;47.848;-122.338;2022-10-16T11:56:13;25.90;;;12.98;;
50064;SDS011;35951;47.848;-122.338;2022-10-16T11:58:50;22.02;;;13.53;;
50064;SDS011;35951;47.848;-122.338;2022-10-16T12:01:40;28.67;;;13.75;;
50064;SDS011;35951;47.848;-122.338;2022-10-16T12:07:14;27.55;;;13.68;;
50064;SDS011;35951;47.848;-122.338;2022-10-16T12:09:51;22.60;;;12.80;;
50064;SDS011;35951;47.848;-122.338;2022-10-16T12:13:25;29.57;;;13.98;;
50064;SDS011;35951;47.848;-122.338;2022-10-16T12:17:46;29.20;;;12.13;;
50064;SDS011;35951;47.848;-122.338;2022-10-16T12:20:19;24.65;;;11.65;;
50064;SDS011;35951;47.848;-122.338;2022-10-16T12:22:52;26.50;;;12.88;;
50064;SDS011;35951;47.848;-122.338;2022-10-16T12:25:33;24.98;;;13.08;;
50064;SDS011;35951;47.848;-122.338;2022-10-16T12:30:58;32.95;;;13.10;;
50064;SDS011;35951;47.848;-122.338;2022-10-16T12:33:26;23.45;;;11.80;;
50064;SDS011;35951;47.848;-122.338;2022-10-16T12:35:56;25.50;;;10.85;;
50064;SDS011;35951;47.848;-122.338;2022-10-16T12:38:27;26.33;;;11.08;;
50064;SDS011;35951;47.848;-122.338;2022-10-16T12:40:59;22.75;;;12.50;;
50064;SDS011;35951;47.848;-122.338;2022-10-16T12:43:43;24.07;;;12.07;;
50064;SDS011;35951;47.848;-122.338;2022-10-16T12:48:45;21.57;;;11.15;;
50064;SDS011;35951;47.848;-122.338;2022-10-16T12:51:35;24.65;;;11.90;;
50064;SDS011;35951;47.848;-122.338;2022-10-16T12:54:01;25.10;;;10.78;;
50064;SDS011;35951;47.848;-122.338;2022-10-16T12:59:41;20.97;;;11.43;;
50064;SDS011;35951;47.848;-122.338;2022-10-16T13:13:55;30.48;;;12.47;;
50064;SDS011;35951;47.848;-122.338;2022-10-16T13:19:36;25.88;;;11.85;;
50064;SDS011;35951;47.848;-122.338;2022-10-16T13:22:41;19.87;;;10.13;;
50064;SDS011;35951;47.848;-122.338;2022-10-16T13:30:34;22.37;;;10.72;;
50064;SDS011;35951;47.848;-122.338;2022-10-16T13:36:06;20.30;;;11.30;;
50064;SDS011;35951;47.848;-122.338;2022-10-16T13:38:37;26.45;;;10.90;;
50064;SDS011;35951;47.848;-122.338;2022-10-16T13:41:06;27.80;;;12.03;;
50064;SDS011;35951;47.848;-122.338;2022-10-16T13:46:21;23.57;;;10.85;;
50064;SDS011;35951;47.848;-122.338;2022-10-16T13:51:32;27.25;;;10.40;;
50064;SDS011;35951;47.848;-122.338;2022-10-16T13:54:01;23.57;;;10.60;;
50064;SDS011;35951;47.848;-122.338;2022-10-16T13:56:30;24.02;;;10.60;;
50064;SDS011;35951;47.848;-122.338;2022-10-16T13:59:00;28.65;;;12.37;;
50064;SDS011;35951;47.848;-122.338;2022-10-16T14:01:30;18.75;;;10.53;;
50064;SDS011;35951;47.848;-122.338;2022-10-16T14:04:08;23.10;;;10.05;;
50064;SDS011;35951;47.848;-122.338;2022-10-16T14:06:43;23.30;;;10.43;;
50064;SDS011;35951;47.848;-122.338;2022-10-16T14:11:50;25.27;;;12.07;;
50064;SDS011;35951;47.848;-122.338;2022-10-16T14:14:21;20.32;;;11.80;;
50064;SDS011;35951;47.848;-122.338;2022-10-16T14:16:49;21.82;;;10.85;;
50064;SDS011;35951;47.848;-122.338;2022-10-16T14:19:20;25.97;;;11.28;;
50064;SDS011;35951;47.848;-122.338;2022-10-16T14:21:52;26.00;;;10.00;;
50064;SDS011;35951;47.848;-122.338;2022-10-16T14:24:24;21.97;;;10.90;;
50064;SDS011;35951;47.848;-122.338;2022-10-16T14:27:01;22.17;;;11.25;;
50064;SDS011;35951;47.848;-122.338;2022-10-16T14:29:33;25.70;;;11.25;;
50064;SDS011;35951;47.848;-122.338;2022-10-16T14:32:02;20.08;;;10.05;;
50064;SDS011;35951;47.848;-122.338;2022-10-16T14:34:34;17.67;;;10.13;;
50064;SDS011;35951;47.848;-122.338;2022-10-16T14:37:10;20.50;;;9.40;;
50064;SDS011;35951;47.848;-122.338;2022-10-16T14:39:38;22.37;;;10.63;;
50064;SDS011;35951;47.848;-122.338;2022-10-16T14:42:17;16.32;;;9.40;;
50064;SDS011;35951;47.848;-122.338;2022-10-16T14:44:44;19.55;;;12.18;;
50064;SDS011;35951;47.848;-122.338;2022-10-16T14:47:15;21.20;;;10.32;;
50064;SDS011;35951;47.848;-122.338;2022-10-16T14:49:48;26.12;;;11.53;;
50064;SDS011;35951;47.848;-122.338;2022-10-16T14:52:15;26.52;;;10.32;;
50064;SDS011;35951;47.848;-122.338;2022-10-16T14:54:47;21.82;;;11.93;;
50064;SDS011;35951;47.848;-122.338;2022-10-16T14:57:18;24.18;;;11.03;;
50064;SDS011;35951;47.848;-122.338;2022-10-16T14:59:49;22.85;;;10.05;;
50064;SDS011;35951;47.848;-122.338;2022-10-16T15:04:57;21.00;;;9.15;;
50064;SDS011;35951;47.848;-122.338;2022-10-16T15:07:41;16.97;;;8.95;;
50064;SDS011;35951;47.848;-122.338;2022-10-16T15:10:09;22.50;;;10.80;;
50064;SDS011;35951;47.848;-122.338;2022-10-16T15:12:39;22.13;;;9.23;;
50064;SDS011;35951;47.848;-122.338;2022-10-16T15:17:55;17.30;;;9.73;;
50064;SDS011;35951;47.848;-122.338;2022-10-16T15:20:26;21.82;;;8.90;;
50064;SDS011;35951;47.848;-122.338;2022-10-16T15:22:56;19.75;;;8.98;;
50064;SDS011;35951;47.848;-122.338;2022-10-16T15:27:59;14.55;;;8.78;;
50064;SDS011;35951;47.848;-122.338;2022-10-16T15:30:28;16.95;;;9.30;;
50064;SDS011;35951;47.848;-122.338;2022-10-16T15:32:57;21.00;;;9.60;;
50064;SDS011;35951;47.848;-122.338;2022-10-16T15:35:25;21.45;;;9.95;;
50064;SDS011;35951;47.848;-122.338;2022-10-16T15:37:53;20.40;;;9.47;;
50064;SDS011;35951;47.848;-122.338;2022-10-16T15:40:22;16.30;;;9.55;;
50064;SDS011;35951;47.848;-122.338;2022-10-16T15:42:50;17.23;;;9.18;;
50064;SDS011;35951;47.848;-122.338;2022-10-16T15:45:21;20.32;;;9.68;;
50064;SDS011;35951;47.848;-122.338;2022-10-16T15:47:49;21.07;;;10.38;;
50064;SDS011;35951;47.848;-122.338;2022-10-16T15:50:16;18.50;;;9.70;;
50064;SDS011;35951;47.848;-122.338;2022-10-16T15:52:44;24.25;;;9.03;;
50064;SDS011;35951;47.848;-122.338;2022-10-16T15:55:12;16.82;;;8.95;;
50064;SDS011;35951;47.848;-122.338;2022-10-16T16:00:12;15.50;;;8.28;;
50064;SDS011;35951;47.848;-122.338;2022-10-16T16:02:43;16.02;;;8.95;;
50064;SDS011;35951;47.848;-122.338;2022-10-16T16:05:13;20.05;;;8.20;;
50064;SDS011;35951;47.848;-122.338;2022-10-16T16:07:41;21.85;;;8.90;;
50064;SDS011;35951;47.848;-122.338;2022-10-16T16:10:10;18.07;;;8.05;;
50064;SDS011;35951;47.848;-122.338;2022-10-16T16:15:07;20.00;;;7.50;;
50064;SDS011;35951;47.848;-122.338;2022-10-16T16:17:36;16.17;;;8.13;;